sensor_id;sensor_type;location;lat;lon;timestamp;P1;durP1;ratioP1;P2;durP2;ratioP2
52184;SDS011;38160;52.876;18.778;2022-09-09T00:02:21;12.90;;;6.20;;
52184;SDS011;38160;52.876;18.778;2022-09-09T00:05:14;9.95;;;5.80;;
52184;SDS011;38160;52.876;18.778;2022-09-09T00:07:54;13.18;;;6.30;;
52184;SDS011;38160;52.876;18.778;2022-09-09T00:19:01;12.60;;;6.80;;
52184;SDS011;38160;52.876;18.778;2022-09-09T00:21:38;12.13;;;6.40;;
52184;SDS011;38160;52.876;18.778;2022-09-09T00:24:22;12.40;;;6.83;;
52184;SDS011;38160;52.876;18.778;2022-09-09T00:27:06;11.95;;;6.97;;
52184;SDS011;38160;52.876;18.778;2022-09-09T00:30:31;11.73;;;6.55;;
52184;SDS011;38160;52.876;18.778;2022-09-09T00:33:10;11.97;;;6.25;;
52184;SDS011;38160;52.876;18.778;2022-09-09T00:35:45;12.70;;;6.17;;
52184;SDS011;38160;52.876;18.778;2022-09-09T00:38:28;12.45;;;6.62;;
52184;SDS011;38160;52.876;18.778;2022-09-09T01:03:12;11.53;;;6.95;;
52184;SDS011;38160;52.876;18.778;2022-09-09T01:06:13;13.68;;;7.53;;
52184;SDS011;38160;52.876;18.778;2022-09-09T01:09:08;12.68;;;6.87;;
52184;SDS011;38160;52.876;18.778;2022-09-09T01:12:02;15.53;;;6.67;;
52184;SDS011;38160;52.876;18.778;2022-09-09T01:14:51;11.63;;;6.53;;
52184;SDS011;38160;52.876;18.778;2022-09-09T01:24:08;12.95;;;6.90;;
52184;SDS011;38160;52.876;18.778;2022-09-09T01:27:15;13.75;;;6.90;;
52184;SDS011;38160;52.876;18.778;2022-09-09T01:29:48;14.55;;;7.00;;
52184;SDS011;38160;52.876;18.778;2022-09-09T01:38:19;15.55;;;7.28;;
52184;SDS011;38160;52.876;18.778;2022-09-09T01:40:54;11.70;;;7.00;;
52184;SDS011;38160;52.876;18.778;2022-09-09T01:43:28;12.37;;;7.15;;
52184;SDS011;38160;52.876;18.778;2022-09-09T01:46:01;14.07;;;7.70;;
52184;SDS011;38160;52.876;18.778;2022-09-09T01:48:33;13.58;;;8.40;;
52184;SDS011;38160;52.876;18.778;2022-09-09T01:51:07;13.45;;;8.15;;
52184;SDS011;38160;52.876;18.778;2022-09-09T01:53:41;13.25;;;9.18;;
52184;SDS011;38160;52.876;18.778;2022-09-09T02:04:49;12.37;;;8.03;;
52184;SDS011;38160;52.876;18.778;2022-09-09T02:10:12;12.15;;;8.00;;
52184;SDS011;38160;52.876;18.778;2022-09-09T02:13:04;15.00;;;7.45;;
52184;SDS011;38160;52.876;18.778;2022-09-09T02:15:44;15.58;;;7.85;;
52184;SDS011;38160;52.876;18.778;2022-09-09T02:18:50;13.78;;;7.58;;
52184;SDS011;38160;52.876;18.778;2022-09-09T02:21:30;17.87;;;9.00;;
52184;SDS011;38160;52.876;18.778;2022-09-09T02:24:05;12.93;;;7.90;;
52184;SDS011;38160;52.876;18.778;2022-09-09T02:26:43;12.05;;;7.10;;
52184;SDS011;38160;52.876;18.778;2022-09-09T02:29:23;15.60;;;7.50;;
52184;SDS011;38160;52.876;18.778;2022-09-09T02:32:04;12.70;;;7.03;;
52184;SDS011;38160;52.876;18.778;2022-09-09T02:34:43;12.07;;;7.35;;
52184;SDS011;38160;52.876;18.778;2022-09-09T02:37:20;12.28;;;7.17;;
52184;SDS011;38160;52.876;18.778;2022-09-09T02:39:57;11.48;;;6.80;;
52184;SDS011;38160;52.876;18.778;2022-09-09T02:42:28;14.13;;;7.50;;
52184;SDS011;38160;52.876;18.778;2022-09-09T02:45:00;11.97;;;7.35;;
52184;SDS011;38160;52.876;18.778;2022-09-09T02:47:36;11.75;;;7.17;;
52184;SDS011;38160;52.876;18.778;2022-09-09T02:50:29;13.90;;;6.45;;
52184;SDS011;38160;52.876;18.778;2022-09-09T02:53:18;15.78;;;8.05;;
52184;SDS011;38160;52.876;18.778;2022-09-09T02:56:36;15.30;;;7.72;;
52184;SDS011;38160;52.876;18.778;2022-09-09T02:58:33;15.90;;;7.72;;
52184;SDS011;38160;52.876;18.778;2022-09-09T03:01:06;16.35;;;7.92;;
52184;SDS011;38160;52.876;18.778;2022-09-09T03:03:39;13.32;;;7.65;;
52184;SDS011;38160;52.876;18.778;2022-09-09T03:06:14;12.70;;;7.85;;
52184;SDS011;38160;52.876;18.778;2022-09-09T03:08:46;15.45;;;7.90;;
52184;SDS011;38160;52.876;18.778;2022-09-09T03:11:17;16.27;;;7.87;;
52184;SDS011;38160;52.876;18.778;2022-09-09T03:13:49;14.13;;;8.28;;
52184;SDS011;38160;52.876;18.778;2022-09-09T03:16:22;15.18;;;8.05;;
52184;SDS011;38160;52.876;18.778;2022-09-09T03:18:55;18.35;;;7.80;;
52184;SDS011;38160;52.876;18.778;2022-09-09T03:21:27;18.57;;;7.50;;
52184;SDS011;38160;52.876;18.778;2022-09-09T03:23:59;15.25;;;7.70;;
52184;SDS011;38160;52.876;18.778;2022-09-09T03:26:33;12.95;;;7.67;;
52184;SDS011;38160;52.876;18.778;2022-09-09T03:29:05;12.30;;;7.92;;
52184;SDS011;38160;52.876;18.778;2022-09-09T03:31:37;14.07;;;7.87;;
52184;SDS011;38160;52.876;18.778;2022-09-09T03:34:10;15.35;;;8.50;;
52184;SDS011;38160;52.876;18.778;2022-09-09T03:36:42;14.05;;;8.53;;
52184;SDS011;38160;52.876;18.778;2022-09-09T03:39:14;13.48;;;8.00;;
52184;SDS011;38160;52.876;18.778;2022-09-09T03:41:46;14.20;;;8.05;;
52184;SDS011;38160;52.876;18.778;2022-09-09T03:44:19;13.30;;;8.00;;
52184;SDS011;38160;52.876;18.778;2022-09-09T03:46:50;13.15;;;7.85;;
52184;SDS011;38160;52.876;18.778;2022-09-09T03:49:22;13.50;;;7.97;;
52184;SDS011;38160;52.876;18.778;2022-09-09T03:51:55;13.90;;;8.00;;
52184;SDS011;38160;52.876;18.778;2022-09-09T03:54:28;15.38;;;8.55;;
52184;SDS011;38160;52.876;18.778;2022-09-09T03:57:00;13.22;;;8.10;;
52184;SDS011;38160;52.876;18.778;2022-09-09T03:59:32;14.93;;;8.75;;
52184;SDS011;38160;52.876;18.778;2022-09-09T04:02:05;15.28;;;8.20;;
52184;SDS011;38160;52.876;18.778;2022-09-09T04:04:37;12.35;;;7.67;;
52184;SDS011;38160;52.876;18.778;2022-09-09T04:07:09;14.45;;;8.03;;
52184;SDS011;38160;52.876;18.778;2022-09-09T04:09:44;18.82;;;9.08;;
52184;SDS011;38160;52.876;18.778;2022-09-09T04:12:15;13.70;;;8.13;;
52184;SDS011;38160;52.876;18.778;2022-09-09T04:14:48;13.78;;;8.63;;
52184;SDS011;38160;52.876;18.778;2022-09-09T04:17:20;15.03;;;8.10;;
52184;SDS011;38160;52.876;18.778;2022-09-09T04:19:53;14.80;;;8.23;;
52184;SDS011;38160;52.876;18.778;2022-09-09T04:22:25;15.85;;;8.55;;
52184;SDS011;38160;52.876;18.778;2022-09-09T04:24:57;19.45;;;8.98;;
52184;SDS011;38160;52.876;18.778;2022-09-09T04:27:29;13.10;;;8.68;;
52184;SDS011;38160;52.876;18.778;2022-09-09T04:30:02;15.08;;;8.93;;
52184;SDS011;38160;52.876;18.778;2022-09-09T04:32:34;14.65;;;9.05;;
52184;SDS011;38160;52.876;18.778;2022-09-09T04:35:07;13.90;;;8.83;;
52184;SDS011;38160;52.876;18.778;2022-09-09T04:40:34;24.93;;;10.17;;
52184;SDS011;38160;52.876;18.778;2022-09-09T04:43:07;88.95;;;13.68;;
52184;SDS011;38160;52.876;18.778;2022-09-09T04:45:39;33.23;;;10.60;;
52184;SDS011;38160;52.876;18.778;2022-09-09T04:48:11;35.43;;;11.48;;
52184;SDS011;38160;52.876;18.778;2022-09-09T04:50:43;29.07;;;10.68;;
52184;SDS011;38160;52.876;18.778;2022-09-09T04:53:16;29.85;;;10.08;;
52184;SDS011;38160;52.876;18.778;2022-09-09T04:55:48;35.83;;;11.45;;
52184;SDS011;38160;52.876;18.778;2022-09-09T04:58:20;17.67;;;9.43;;
52184;SDS011;38160;52.876;18.778;2022-09-09T05:00:53;25.92;;;9.80;;
52184;SDS011;38160;52.876;18.778;2022-09-09T05:03:25;21.35;;;10.65;;
52184;SDS011;38160;52.876;18.778;2022-09-09T05:06:04;35.78;;;11.75;;
52184;SDS011;38160;52.876;18.778;2022-09-09T05:08:40;25.62;;;10.70;;
52184;SDS011;38160;52.876;18.778;2022-09-09T05:11:18;24.00;;;10.00;;
52184;SDS011;38160;52.876;18.778;2022-09-09T05:14:08;20.60;;;10.95;;
52184;SDS011;38160;52.876;18.778;2022-09-09T05:16:43;25.80;;;10.75;;
52184;SDS011;38160;52.876;18.778;2022-09-09T05:19:16;21.40;;;10.85;;
52184;SDS011;38160;52.876;18.778;2022-09-09T05:21:51;35.35;;;11.35;;
52184;SDS011;38160;52.876;18.778;2022-09-09T05:24:25;25.23;;;10.88;;
52184;SDS011;38160;52.876;18.778;2022-09-09T05:26:58;24.45;;;10.30;;
52184;SDS011;38160;52.876;18.778;2022-09-09T05:29:32;108.57;;;14.05;;
52184;SDS011;38160;52.876;18.778;2022-09-09T05:32:04;24.43;;;11.08;;
52184;SDS011;38160;52.876;18.778;2022-09-09T05:34:40;21.23;;;10.88;;
52184;SDS011;38160;52.876;18.778;2022-09-09T05:37:12;31.82;;;11.75;;
52184;SDS011;38160;52.876;18.778;2022-09-09T05:39:44;33.00;;;11.97;;
52184;SDS011;38160;52.876;18.778;2022-09-09T05:42:16;28.83;;;11.57;;
52184;SDS011;38160;52.876;18.778;2022-09-09T05:44:51;25.72;;;10.82;;
52184;SDS011;38160;52.876;18.778;2022-09-09T05:52:57;22.35;;;11.43;;
52184;SDS011;38160;52.876;18.778;2022-09-09T06:02:07;18.77;;;10.90;;
52184;SDS011;38160;52.876;18.778;2022-09-09T06:04:41;24.55;;;11.75;;
52184;SDS011;38160;52.876;18.778;2022-09-09T06:07:12;27.32;;;11.97;;
52184;SDS011;38160;52.876;18.778;2022-09-09T06:09:45;26.68;;;11.57;;
52184;SDS011;38160;52.876;18.778;2022-09-09T06:12:18;21.95;;;12.30;;
52184;SDS011;38160;52.876;18.778;2022-09-09T06:14:51;22.82;;;12.53;;
52184;SDS011;38160;52.876;18.778;2022-09-09T06:17:23;26.68;;;12.25;;
52184;SDS011;38160;52.876;18.778;2022-09-09T06:20:03;27.45;;;12.75;;
52184;SDS011;38160;52.876;18.778;2022-09-09T06:22:33;21.57;;;13.03;;
52184;SDS011;38160;52.876;18.778;2022-09-09T06:25:08;34.40;;;13.08;;
52184;SDS011;38160;52.876;18.778;2022-09-09T06:27:40;29.55;;;13.70;;
52184;SDS011;38160;52.876;18.778;2022-09-09T06:30:13;33.30;;;14.55;;
52184;SDS011;38160;52.876;18.778;2022-09-09T06:32:45;26.55;;;13.20;;
52184;SDS011;38160;52.876;18.778;2022-09-09T06:35:18;25.72;;;13.28;;
52184;SDS011;38160;52.876;18.778;2022-09-09T06:37:53;36.00;;;14.00;;
52184;SDS011;38160;52.876;18.778;2022-09-09T06:40:33;23.65;;;13.50;;
52184;SDS011;38160;52.876;18.778;2022-09-09T06:43:24;25.08;;;13.78;;
52184;SDS011;38160;52.876;18.778;2022-09-09T06:45:59;27.50;;;14.25;;
52184;SDS011;38160;52.876;18.778;2022-09-09T06:51:15;27.55;;;15.20;;
52184;SDS011;38160;52.876;18.778;2022-09-09T06:53:50;33.13;;;14.87;;
52184;SDS011;38160;52.876;18.778;2022-09-09T06:56:32;26.27;;;14.80;;
52184;SDS011;38160;52.876;18.778;2022-09-09T06:59:14;33.85;;;15.90;;
52184;SDS011;38160;52.876;18.778;2022-09-09T07:01:49;31.37;;;15.65;;
52184;SDS011;38160;52.876;18.778;2022-09-09T07:04:22;29.25;;;15.88;;
52184;SDS011;38160;52.876;18.778;2022-09-09T07:06:54;26.82;;;15.53;;
52184;SDS011;38160;52.876;18.778;2022-09-09T07:09:28;31.20;;;14.95;;
52184;SDS011;38160;52.876;18.778;2022-09-09T07:12:00;27.50;;;15.88;;
52184;SDS011;38160;52.876;18.778;2022-09-09T07:14:33;40.15;;;16.37;;
52184;SDS011;38160;52.876;18.778;2022-09-09T07:17:07;36.28;;;15.80;;
52184;SDS011;38160;52.876;18.778;2022-09-09T07:19:41;36.40;;;16.87;;
52184;SDS011;38160;52.876;18.778;2022-09-09T07:22:13;24.85;;;14.87;;
52184;SDS011;38160;52.876;18.778;2022-09-09T07:24:46;32.63;;;17.25;;
52184;SDS011;38160;52.876;18.778;2022-09-09T07:27:19;30.55;;;16.27;;
52184;SDS011;38160;52.876;18.778;2022-09-09T07:29:52;26.95;;;16.75;;
52184;SDS011;38160;52.876;18.778;2022-09-09T07:32:24;30.25;;;16.82;;
52184;SDS011;38160;52.876;18.778;2022-09-09T07:34:56;30.05;;;17.23;;
52184;SDS011;38160;52.876;18.778;2022-09-09T07:37:29;35.15;;;16.85;;
52184;SDS011;38160;52.876;18.778;2022-09-09T07:40:01;35.43;;;17.42;;
52184;SDS011;38160;52.876;18.778;2022-09-09T07:42:39;33.02;;;18.95;;
52184;SDS011;38160;52.876;18.778;2022-09-09T16:44:38;30.00;;;20.82;;
52184;SDS011;38160;52.876;18.778;2022-09-09T16:56:05;34.50;;;24.23;;
52184;SDS011;38160;52.876;18.778;2022-09-09T17:56:06;41.25;;;26.77;;
52184;SDS011;38160;52.876;18.778;2022-09-09T17:58:36;37.15;;;27.67;;
52184;SDS011;38160;52.876;18.778;2022-09-09T18:07:26;38.33;;;27.98;;
52184;SDS011;38160;52.876;18.778;2022-09-09T18:15:48;41.73;;;30.02;;
52184;SDS011;38160;52.876;18.778;2022-09-09T18:21:07;37.48;;;29.18;;
52184;SDS011;38160;52.876;18.778;2022-09-09T18:24:00;39.70;;;28.90;;
52184;SDS011;38160;52.876;18.778;2022-09-09T18:32:02;43.30;;;31.80;;
52184;SDS011;38160;52.876;18.778;2022-09-09T18:34:59;41.20;;;29.55;;
52184;SDS011;38160;52.876;18.778;2022-09-09T18:37:32;44.15;;;31.25;;
52184;SDS011;38160;52.876;18.778;2022-09-09T18:42:54;42.17;;;31.00;;
52184;SDS011;38160;52.876;18.778;2022-09-09T18:45:27;39.67;;;30.00;;
52184;SDS011;38160;52.876;18.778;2022-09-09T18:48:00;41.58;;;32.35;;
52184;SDS011;38160;52.876;18.778;2022-09-09T18:50:33;41.48;;;30.92;;
52184;SDS011;38160;52.876;18.778;2022-09-09T18:53:05;41.25;;;32.03;;
52184;SDS011;38160;52.876;18.778;2022-09-09T18:55:40;45.83;;;33.00;;
52184;SDS011;38160;52.876;18.778;2022-09-09T18:58:12;46.48;;;33.85;;
52184;SDS011;38160;52.876;18.778;2022-09-09T19:00:45;43.65;;;33.00;;
52184;SDS011;38160;52.876;18.778;2022-09-09T19:03:16;44.77;;;33.58;;
52184;SDS011;38160;52.876;18.778;2022-09-09T19:05:48;47.93;;;33.67;;
52184;SDS011;38160;52.876;18.778;2022-09-09T19:08:35;50.73;;;35.48;;
52184;SDS011;38160;52.876;18.778;2022-09-09T19:11:10;52.43;;;34.58;;
52184;SDS011;38160;52.876;18.778;2022-09-09T19:13:52;51.53;;;35.33;;
52184;SDS011;38160;52.876;18.778;2022-09-09T19:16:34;52.17;;;35.35;;
52184;SDS011;38160;52.876;18.778;2022-09-09T19:19:06;46.95;;;34.08;;
52184;SDS011;38160;52.876;18.778;2022-09-09T19:21:42;49.83;;;34.35;;
52184;SDS011;38160;52.876;18.778;2022-09-09T19:24:15;52.80;;;36.33;;
52184;SDS011;38160;52.876;18.778;2022-09-09T19:26:51;53.30;;;35.68;;
52184;SDS011;38160;52.876;18.778;2022-09-09T19:29:28;54.23;;;36.48;;
52184;SDS011;38160;52.876;18.778;2022-09-09T19:32:03;50.63;;;35.43;;
52184;SDS011;38160;52.876;18.778;2022-09-09T19:34:36;49.75;;;35.03;;
52184;SDS011;38160;52.876;18.778;2022-09-09T19:37:07;54.63;;;35.05;;
52184;SDS011;38160;52.876;18.778;2022-09-09T19:39:39;52.23;;;35.90;;
52184;SDS011;38160;52.876;18.778;2022-09-09T19:42:11;50.35;;;34.90;;
52184;SDS011;38160;52.876;18.778;2022-09-09T19:44:43;57.03;;;37.20;;
52184;SDS011;38160;52.876;18.778;2022-09-09T19:47:16;55.20;;;36.20;;
52184;SDS011;38160;52.876;18.778;2022-09-09T19:49:49;48.60;;;35.83;;
52184;SDS011;38160;52.876;18.778;2022-09-09T19:52:27;52.58;;;35.68;;
52184;SDS011;38160;52.876;18.778;2022-09-09T19:54:58;53.30;;;35.35;;
52184;SDS011;38160;52.876;18.778;2022-09-09T20:00:16;51.90;;;35.30;;
52184;SDS011;38160;52.876;18.778;2022-09-09T20:02:48;50.52;;;34.50;;
52184;SDS011;38160;52.876;18.778;2022-09-09T20:05:20;55.00;;;36.03;;
52184;SDS011;38160;52.876;18.778;2022-09-09T20:07:53;53.65;;;33.75;;
52184;SDS011;38160;52.876;18.778;2022-09-09T20:19:01;54.45;;;36.15;;
52184;SDS011;38160;52.876;18.778;2022-09-09T20:21:40;55.20;;;35.90;;
52184;SDS011;38160;52.876;18.778;2022-09-09T20:24:17;51.73;;;35.78;;
52184;SDS011;38160;52.876;18.778;2022-09-09T20:27:03;57.67;;;38.30;;
52184;SDS011;38160;52.876;18.778;2022-09-09T20:35:28;54.33;;;35.70;;
52184;SDS011;38160;52.876;18.778;2022-09-09T20:38:01;55.23;;;37.70;;
52184;SDS011;38160;52.876;18.778;2022-09-09T20:40:36;51.63;;;36.30;;
52184;SDS011;38160;52.876;18.778;2022-09-09T20:45:44;54.15;;;37.13;;
52184;SDS011;38160;52.876;18.778;2022-09-09T20:48:16;60.60;;;38.08;;
52184;SDS011;38160;52.876;18.778;2022-09-09T20:50:48;59.10;;;38.92;;
52184;SDS011;38160;52.876;18.778;2022-09-09T20:53:20;53.52;;;36.40;;
52184;SDS011;38160;52.876;18.778;2022-09-09T20:55:57;58.10;;;38.08;;
52184;SDS011;38160;52.876;18.778;2022-09-09T20:58:32;56.33;;;37.93;;
52184;SDS011;38160;52.876;18.778;2022-09-09T21:01:04;53.48;;;35.40;;
52184;SDS011;38160;52.876;18.778;2022-09-09T21:03:37;57.27;;;36.25;;
52184;SDS011;38160;52.876;18.778;2022-09-09T21:06:09;55.25;;;36.08;;
52184;SDS011;38160;52.876;18.778;2022-09-09T21:08:41;54.77;;;36.60;;
52184;SDS011;38160;52.876;18.778;2022-09-09T21:11:14;58.73;;;36.88;;
52184;SDS011;38160;52.876;18.778;2022-09-09T21:13:47;58.35;;;37.20;;
52184;SDS011;38160;52.876;18.778;2022-09-09T21:16:20;59.27;;;35.55;;
52184;SDS011;38160;52.876;18.778;2022-09-09T21:18:53;67.27;;;35.90;;
52184;SDS011;38160;52.876;18.778;2022-09-09T21:21:26;51.68;;;33.63;;
52184;SDS011;38160;52.876;18.778;2022-09-09T21:23:57;57.58;;;35.50;;
52184;SDS011;38160;52.876;18.778;2022-09-09T21:26:30;56.90;;;34.95;;
52184;SDS011;38160;52.876;18.778;2022-09-09T21:29:02;63.95;;;37.23;;
52184;SDS011;38160;52.876;18.778;2022-09-09T21:31:33;65.62;;;38.65;;
52184;SDS011;38160;52.876;18.778;2022-09-09T21:34:05;65.52;;;37.38;;
52184;SDS011;38160;52.876;18.778;2022-09-09T21:36:38;60.00;;;38.08;;
52184;SDS011;38160;52.876;18.778;2022-09-09T21:39:10;61.35;;;36.90;;
52184;SDS011;38160;52.876;18.778;2022-09-09T21:41:42;63.68;;;37.80;;
52184;SDS011;38160;52.876;18.778;2022-09-09T21:44:14;64.80;;;38.75;;
52184;SDS011;38160;52.876;18.778;2022-09-09T21:46:46;69.27;;;38.28;;
52184;SDS011;38160;52.876;18.778;2022-09-09T21:49:17;64.85;;;39.33;;
52184;SDS011;38160;52.876;18.778;2022-09-09T21:51:49;63.65;;;38.35;;
52184;SDS011;38160;52.876;18.778;2022-09-09T21:54:21;68.57;;;39.30;;
52184;SDS011;38160;52.876;18.778;2022-09-09T21:56:53;67.00;;;39.83;;
52184;SDS011;38160;52.876;18.778;2022-09-09T21:59:25;64.30;;;37.83;;
52184;SDS011;38160;52.876;18.778;2022-09-09T22:01:57;71.42;;;39.42;;
52184;SDS011;38160;52.876;18.778;2022-09-09T22:04:29;63.85;;;37.63;;
52184;SDS011;38160;52.876;18.778;2022-09-09T22:07:01;69.32;;;37.88;;
52184;SDS011;38160;52.876;18.778;2022-09-09T22:09:33;65.25;;;39.55;;
52184;SDS011;38160;52.876;18.778;2022-09-09T22:12:06;67.37;;;37.53;;
52184;SDS011;38160;52.876;18.778;2022-09-09T22:14:38;69.62;;;39.05;;
52184;SDS011;38160;52.876;18.778;2022-09-09T22:17:10;66.57;;;38.73;;
52184;SDS011;38160;52.876;18.778;2022-09-09T22:19:42;65.80;;;38.63;;
52184;SDS011;38160;52.876;18.778;2022-09-09T22:22:13;64.50;;;36.60;;
52184;SDS011;38160;52.876;18.778;2022-09-09T22:24:45;65.57;;;38.23;;
52184;SDS011;38160;52.876;18.778;2022-09-09T22:27:17;64.92;;;37.98;;
52184;SDS011;38160;52.876;18.778;2022-09-09T22:29:49;64.67;;;37.00;;
52184;SDS011;38160;52.876;18.778;2022-09-09T22:32:20;64.27;;;34.60;;
52184;SDS011;38160;52.876;18.778;2022-09-09T22:34:52;62.48;;;33.28;;
52184;SDS011;38160;52.876;18.778;2022-09-09T22:37:24;60.88;;;32.20;;
52184;SDS011;38160;52.876;18.778;2022-09-09T22:39:56;54.65;;;31.12;;
52184;SDS011;38160;52.876;18.778;2022-09-09T22:42:27;51.18;;;30.80;;
52184;SDS011;38160;52.876;18.778;2022-09-09T22:45:00;46.65;;;28.87;;
52184;SDS011;38160;52.876;18.778;2022-09-09T22:47:31;49.95;;;28.38;;
52184;SDS011;38160;52.876;18.778;2022-09-09T22:50:04;48.98;;;27.90;;
52184;SDS011;38160;52.876;18.778;2022-09-09T22:52:37;52.48;;;28.92;;
52184;SDS011;38160;52.876;18.778;2022-09-09T22:55:09;52.95;;;29.82;;
52184;SDS011;38160;52.876;18.778;2022-09-09T22:57:40;51.18;;;28.95;;
52184;SDS011;38160;52.876;18.778;2022-09-09T23:00:12;46.25;;;27.90;;
52184;SDS011;38160;52.876;18.778;2022-09-09T23:02:45;46.60;;;27.82;;
52184;SDS011;38160;52.876;18.778;2022-09-09T23:05:18;50.10;;;27.45;;
52184;SDS011;38160;52.876;18.778;2022-09-09T23:07:52;52.00;;;28.50;;
52184;SDS011;38160;52.876;18.778;2022-09-09T23:10:26;48.90;;;29.30;;
52184;SDS011;38160;52.876;18.778;2022-09-09T23:13:00;49.40;;;28.85;;
52184;SDS011;38160;52.876;18.778;2022-09-09T23:15:31;46.58;;;28.50;;
52184;SDS011;38160;52.876;18.778;2022-09-09T23:18:03;51.28;;;28.67;;
52184;SDS011;38160;52.876;18.778;2022-09-09T23:20:35;49.00;;;28.57;;
52184;SDS011;38160;52.876;18.778;2022-09-09T23:23:08;44.05;;;27.07;;
52184;SDS011;38160;52.876;18.778;2022-09-09T23:25:41;46.60;;;27.87;;
52184;SDS011;38160;52.876;18.778;2022-09-09T23:28:13;47.62;;;27.85;;
52184;SDS011;38160;52.876;18.778;2022-09-09T23:30:44;50.95;;;29.65;;
52184;SDS011;38160;52.876;18.778;2022-09-09T23:33:16;50.98;;;29.20;;
52184;SDS011;38160;52.876;18.778;2022-09-09T23:35:56;50.03;;;28.85;;
52184;SDS011;38160;52.876;18.778;2022-09-09T23:38:29;51.10;;;29.18;;
52184;SDS011;38160;52.876;18.778;2022-09-09T23:41:01;48.70;;;28.92;;
52184;SDS011;38160;52.876;18.778;2022-09-09T23:43:33;45.65;;;27.55;;
52184;SDS011;38160;52.876;18.778;2022-09-09T23:46:08;48.65;;;27.65;;
52184;SDS011;38160;52.876;18.778;2022-09-09T23:48:43;46.68;;;29.32;;
52184;SDS011;38160;52.876;18.778;2022-09-09T23:51:15;52.58;;;30.00;;
52184;SDS011;38160;52.876;18.778;2022-09-09T23:53:49;47.10;;;28.27;;
52184;SDS011;38160;52.876;18.778;2022-09-09T23:56:27;42.85;;;26.45;;
52184;SDS011;38160;52.876;18.778;2022-09-09T23:59:03;46.13;;;28.62;;
